Auburn Hills, Michigan
Current Conditions -  °F | °C
As of 7:55 AM on Thursday 30 Oct 2014 (Local Time) from KVLL Reporting Station
Overcast Overcast  
Wind Chill: 43°   Ceiling: 2300
Heat Index: 43°   Visibility: 10mi
Dew Point: 31°   Wind: 3mph
Humidity: 65%   Direction: 300°WNW
Pressure: 30.13"   Gusts: NA
Location:  42.67°N, 83.22°W
Report Text: KVLL 301155Z AUTO 30003KT 10SM OVC023 06/00 A3013 RMK AO2 T00591003 10067 20058
Loading
Personal Weather Stations






























Interactive Weather Map
Tropical Storm Tracking
New forecast layout! Learn more

10-Day Weather Forecast

Advertisements
Track Severe Weather on mobile